sensor_id;sensor_type;location;lat;lon;timestamp;temperature;humidity
57088;DHT22;42965;52.846;6.614;2022-09-12T00:00:48;14.10;99.90
57088;DHT22;42965;52.846;6.614;2022-09-12T00:03:15;14.00;99.90
57088;DHT22;42965;52.846;6.614;2022-09-12T00:05:45;14.00;99.90
57088;DHT22;42965;52.846;6.614;2022-09-12T00:08:13;13.90;99.90
57088;DHT22;42965;52.846;6.614;2022-09-12T00:10:40;13.90;99.90
57088;DHT22;42965;52.846;6.614;2022-09-12T00:13:07;13.80;99.90
57088;DHT22;42965;52.846;6.614;2022-09-12T00:15:38;13.80;99.90
57088;DHT22;42965;52.846;6.614;2022-09-12T00:18:05;13.80;99.90
57088;DHT22;42965;52.846;6.614;2022-09-12T00:20:32;13.80;99.90
57088;DHT22;42965;52.846;6.614;2022-09-12T00:22:59;13.80;99.90
57088;DHT22;42965;52.846;6.614;2022-09-12T00:25:25;13.80;99.90
57088;DHT22;42965;52.846;6.614;2022-09-12T00:27:52;13.80;99.90
57088;DHT22;42965;52.846;6.614;2022-09-12T00:30:18;13.80;99.90
57088;DHT22;42965;52.846;6.614;2022-09-12T00:32:44;13.70;99.90
57088;DHT22;42965;52.846;6.614;2022-09-12T00:35:10;13.70;99.90
57088;DHT22;42965;52.846;6.614;2022-09-12T00:37:37;13.70;99.90
57088;DHT22;42965;52.846;6.614;2022-09-12T00:40:04;13.70;99.90
57088;DHT22;42965;52.846;6.614;2022-09-12T00:42:30;13.70;99.90
57088;DHT22;42965;52.846;6.614;2022-09-12T00:44:56;13.60;99.90
57088;DHT22;42965;52.846;6.614;2022-09-12T00:47:30;13.60;99.90
57088;DHT22;42965;52.846;6.614;2022-09-12T00:52:52;13.50;99.90
57088;DHT22;42965;52.846;6.614;2022-09-12T00:55:26;13.50;99.90
57088;DHT22;42965;52.846;6.614;2022-09-12T00:58:00;13.50;99.90
57088;DHT22;42965;52.846;6.614;2022-09-12T01:00:28;13.50;99.90
57088;DHT22;42965;52.846;6.614;2022-09-12T01:03:06;13.40;99.90
57088;DHT22;42965;52.846;6.614;2022-09-12T01:05:35;13.40;99.90
57088;DHT22;42965;52.846;6.614;2022-09-12T01:08:03;13.40;99.90
57088;DHT22;42965;52.846;6.614;2022-09-12T01:10:31;13.40;99.90
57088;DHT22;42965;52.846;6.614;2022-09-12T01:12:59;13.40;99.90
57088;DHT22;42965;52.846;6.614;2022-09-12T01:15:26;13.40;99.90
57088;DHT22;42965;52.846;6.614;2022-09-12T01:29:30;13.30;99.90
57088;DHT22;42965;52.846;6.614;2022-09-12T01:32:09;13.30;99.90
57088;DHT22;42965;52.846;6.614;2022-09-12T01:34:48;13.30;99.90
57088;DHT22;42965;52.846;6.614;2022-09-12T01:37:29;13.30;99.90
57088;DHT22;42965;52.846;6.614;2022-09-12T01:42:52;13.20;99.90
57088;DHT22;42965;52.846;6.614;2022-09-12T01:45:26;13.20;99.90
57088;DHT22;42965;52.846;6.614;2022-09-12T01:50:31;13.20;99.90
57088;DHT22;42965;52.846;6.614;2022-09-12T01:53:07;13.10;99.90
57088;DHT22;42965;52.846;6.614;2022-09-12T01:55:40;13.20;99.90
57088;DHT22;42965;52.846;6.614;2022-09-12T02:00:36;13.10;99.90
57088;DHT22;42965;52.846;6.614;2022-09-12T02:03:12;13.20;99.90
57088;DHT22;42965;52.846;6.614;2022-09-12T02:06:14;13.10;99.90
57088;DHT22;42965;52.846;6.614;2022-09-12T02:08:41;13.10;99.90
57088;DHT22;42965;52.846;6.614;2022-09-12T02:11:10;13.10;99.90
57088;DHT22;42965;52.846;6.614;2022-09-12T02:13:48;13.20;99.90
57088;DHT22;42965;52.846;6.614;2022-09-12T02:18:50;13.10;99.90
57088;DHT22;42965;52.846;6.614;2022-09-12T02:21:19;13.10;99.90
57088;DHT22;42965;52.846;6.614;2022-09-12T02:23:50;13.10;99.90
57088;DHT22;42965;52.846;6.614;2022-09-12T02:26:21;13.10;99.90
57088;DHT22;42965;52.846;6.614;2022-09-12T02:28:50;13.10;99.90
57088;DHT22;42965;52.846;6.614;2022-09-12T02:31:24;13.00;99.90
57088;DHT22;42965;52.846;6.614;2022-09-12T02:34:17;13.00;99.90
57088;DHT22;42965;52.846;6.614;2022-09-12T02:40:00;13.00;99.90
57088;DHT22;42965;52.846;6.614;2022-09-12T02:42:27;12.90;99.90
57088;DHT22;42965;52.846;6.614;2022-09-12T02:44:54;12.90;99.90
57088;DHT22;42965;52.846;6.614;2022-09-12T02:47:43;12.90;99.90
57088;DHT22;42965;52.846;6.614;2022-09-12T02:50:11;12.90;99.90
57088;DHT22;42965;52.846;6.614;2022-09-12T02:52:37;12.90;99.90
57088;DHT22;42965;52.846;6.614;2022-09-12T02:55:05;12.90;99.90
57088;DHT22;42965;52.846;6.614;2022-09-12T02:57:31;12.90;99.90
57088;DHT22;42965;52.846;6.614;2022-09-12T02:59:59;12.90;99.90
57088;DHT22;42965;52.846;6.614;2022-09-12T03:10:52;12.90;99.90
57088;DHT22;42965;52.846;6.614;2022-09-12T03:18:57;12.80;99.90
57088;DHT22;42965;52.846;6.614;2022-09-12T03:21:57;12.80;99.90
57088;DHT22;42965;52.846;6.614;2022-09-12T03:24:34;12.80;99.90
57088;DHT22;42965;52.846;6.614;2022-09-12T03:27:28;12.80;99.90
57088;DHT22;42965;52.846;6.614;2022-09-12T03:29:56;12.80;99.90
57088;DHT22;42965;52.846;6.614;2022-09-12T03:32:49;12.70;99.90
57088;DHT22;42965;52.846;6.614;2022-09-12T03:35:17;12.80;99.90
57088;DHT22;42965;52.846;6.614;2022-09-12T03:37:45;12.80;99.90
57088;DHT22;42965;52.846;6.614;2022-09-12T03:40:11;12.70;99.90
57088;DHT22;42965;52.846;6.614;2022-09-12T03:42:38;12.70;99.90
57088;DHT22;42965;52.846;6.614;2022-09-12T03:45:05;12.70;99.90
57088;DHT22;42965;52.846;6.614;2022-09-12T03:47:31;12.70;99.90
57088;DHT22;42965;52.846;6.614;2022-09-12T03:49:57;12.60;99.90
57088;DHT22;42965;52.846;6.614;2022-09-12T03:52:23;12.70;99.90
57088;DHT22;42965;52.846;6.614;2022-09-12T03:54:50;12.70;99.90
57088;DHT22;42965;52.846;6.614;2022-09-12T03:57:16;12.70;99.90
57088;DHT22;42965;52.846;6.614;2022-09-12T03:59:42;12.60;99.90
57088;DHT22;42965;52.846;6.614;2022-09-12T04:02:09;12.60;99.90
57088;DHT22;42965;52.846;6.614;2022-09-12T04:04:40;12.60;99.90
57088;DHT22;42965;52.846;6.614;2022-09-12T04:07:09;12.60;99.90
57088;DHT22;42965;52.846;6.614;2022-09-12T04:09:35;12.60;99.90
57088;DHT22;42965;52.846;6.614;2022-09-12T04:12:01;12.60;99.90
57088;DHT22;42965;52.846;6.614;2022-09-12T04:14:28;12.60;99.90
57088;DHT22;42965;52.846;6.614;2022-09-12T04:16:54;12.60;99.90
57088;DHT22;42965;52.846;6.614;2022-09-12T04:19:20;12.60;99.90
57088;DHT22;42965;52.846;6.614;2022-09-12T04:21:46;12.60;99.90
57088;DHT22;42965;52.846;6.614;2022-09-12T04:24:12;12.50;99.90
57088;DHT22;42965;52.846;6.614;2022-09-12T04:26:38;12.60;99.90
57088;DHT22;42965;52.846;6.614;2022-09-12T04:29:04;12.50;99.90
57088;DHT22;42965;52.846;6.614;2022-09-12T04:31:30;12.50;99.90
57088;DHT22;42965;52.846;6.614;2022-09-12T04:33:59;12.50;99.90
57088;DHT22;42965;52.846;6.614;2022-09-12T04:36:26;12.50;99.90
57088;DHT22;42965;52.846;6.614;2022-09-12T04:38:54;12.50;99.90
57088;DHT22;42965;52.846;6.614;2022-09-12T04:41:34;12.40;99.90
57088;DHT22;42965;52.846;6.614;2022-09-12T04:44:11;12.50;99.90
57088;DHT22;42965;52.846;6.614;2022-09-12T04:46:43;12.40;99.90
57088;DHT22;42965;52.846;6.614;2022-09-12T04:49:11;12.40;99.90
57088;DHT22;42965;52.846;6.614;2022-09-12T04:51:39;12.40;99.90
57088;DHT22;42965;52.846;6.614;2022-09-12T04:54:15;12.40;99.90
57088;DHT22;42965;52.846;6.614;2022-09-12T04:56:44;12.40;99.90
57088;DHT22;42965;52.846;6.614;2022-09-12T04:59:12;12.40;99.90
57088;DHT22;42965;52.846;6.614;2022-09-12T05:01:39;12.40;99.90
57088;DHT22;42965;52.846;6.614;2022-09-12T05:04:06;12.40;99.90
57088;DHT22;42965;52.846;6.614;2022-09-12T05:06:34;12.50;99.90
57088;DHT22;42965;52.846;6.614;2022-09-12T05:09:02;12.50;99.90
57088;DHT22;42965;52.846;6.614;2022-09-12T05:11:31;12.60;99.90
57088;DHT22;42965;52.846;6.614;2022-09-12T05:13:58;12.60;99.90
57088;DHT22;42965;52.846;6.614;2022-09-12T05:16:26;12.70;99.90
57088;DHT22;42965;52.846;6.614;2022-09-12T05:18:54;12.70;99.90
57088;DHT22;42965;52.846;6.614;2022-09-12T05:21:21;12.80;99.90
57088;DHT22;42965;52.846;6.614;2022-09-12T05:23:54;12.90;99.90
57088;DHT22;42965;52.846;6.614;2022-09-12T05:26:21;13.00;99.90
57088;DHT22;42965;52.846;6.614;2022-09-12T05:28:49;13.20;99.90
57088;DHT22;42965;52.846;6.614;2022-09-12T05:31:26;13.30;99.90
57088;DHT22;42965;52.846;6.614;2022-09-12T05:33:54;13.40;99.90
57088;DHT22;42965;52.846;6.614;2022-09-12T05:36:22;13.50;99.90
57088;DHT22;42965;52.846;6.614;2022-09-12T05:38:49;13.60;99.90
57088;DHT22;42965;52.846;6.614;2022-09-12T05:41:17;13.70;99.90
57088;DHT22;42965;52.846;6.614;2022-09-12T05:43:45;13.80;99.90
57088;DHT22;42965;52.846;6.614;2022-09-12T05:46:17;13.90;99.90
57088;DHT22;42965;52.846;6.614;2022-09-12T05:48:44;14.00;99.90
57088;DHT22;42965;52.846;6.614;2022-09-12T05:51:16;14.10;99.90
57088;DHT22;42965;52.846;6.614;2022-09-12T05:53:45;14.20;99.90
57088;DHT22;42965;52.846;6.614;2022-09-12T05:56:17;14.30;99.90
57088;DHT22;42965;52.846;6.614;2022-09-12T05:58:45;14.30;99.90
57088;DHT22;42965;52.846;6.614;2022-09-12T06:01:14;14.40;99.90
57088;DHT22;42965;52.846;6.614;2022-09-12T06:03:46;14.40;99.90
57088;DHT22;42965;52.846;6.614;2022-09-12T06:11:27;14.50;99.90
57088;DHT22;42965;52.846;6.614;2022-09-12T06:13:56;14.50;99.90
57088;DHT22;42965;52.846;6.614;2022-09-12T06:16:31;14.50;99.90
57088;DHT22;42965;52.846;6.614;2022-09-12T06:19:00;14.70;99.90
57088;DHT22;42965;52.846;6.614;2022-09-12T06:21:27;14.70;99.90
57088;DHT22;42965;52.846;6.614;2022-09-12T06:23:54;14.70;99.90
57088;DHT22;42965;52.846;6.614;2022-09-12T06:26:21;14.80;99.90
57088;DHT22;42965;52.846;6.614;2022-09-12T06:28:49;14.90;99.90
57088;DHT22;42965;52.846;6.614;2022-09-12T06:31:18;14.90;99.90
57088;DHT22;42965;52.846;6.614;2022-09-12T06:33:47;14.90;99.90
57088;DHT22;42965;52.846;6.614;2022-09-12T06:36:19;15.00;99.90
57088;DHT22;42965;52.846;6.614;2022-09-12T06:38:45;15.00;99.90
57088;DHT22;42965;52.846;6.614;2022-09-12T06:41:14;15.00;99.90
57088;DHT22;42965;52.846;6.614;2022-09-12T06:43:41;15.10;99.90
57088;DHT22;42965;52.846;6.614;2022-09-12T06:46:08;15.20;99.90
57088;DHT22;42965;52.846;6.614;2022-09-12T06:48:35;15.20;99.90
57088;DHT22;42965;52.846;6.614;2022-09-12T06:51:07;15.30;99.90
57088;DHT22;42965;52.846;6.614;2022-09-12T06:53:34;15.40;99.90
57088;DHT22;42965;52.846;6.614;2022-09-12T06:56:07;15.40;99.90
57088;DHT22;42965;52.846;6.614;2022-09-12T06:58:34;15.50;99.90
57088;DHT22;42965;52.846;6.614;2022-09-12T07:03:28;15.60;99.90
57088;DHT22;42965;52.846;6.614;2022-09-12T07:05:54;15.60;99.90
57088;DHT22;42965;52.846;6.614;2022-09-12T07:08:21;15.60;99.90
57088;DHT22;42965;52.846;6.614;2022-09-12T07:10:47;15.70;99.90
57088;DHT22;42965;52.846;6.614;2022-09-12T07:13:13;15.80;99.90
57088;DHT22;42965;52.846;6.614;2022-09-12T07:15:40;15.80;99.90
57088;DHT22;42965;52.846;6.614;2022-09-12T07:18:07;15.90;99.90
57088;DHT22;42965;52.846;6.614;2022-09-12T07:20:35;15.80;99.90
57088;DHT22;42965;52.846;6.614;2022-09-12T07:23:04;15.80;99.90
57088;DHT22;42965;52.846;6.614;2022-09-12T07:25:30;15.80;99.90
57088;DHT22;42965;52.846;6.614;2022-09-12T07:27:56;15.80;99.90
57088;DHT22;42965;52.846;6.614;2022-09-12T07:30:22;15.80;99.90
57088;DHT22;42965;52.846;6.614;2022-09-12T07:32:54;15.80;99.90
57088;DHT22;42965;52.846;6.614;2022-09-12T07:35:20;15.90;99.90
57088;DHT22;42965;52.846;6.614;2022-09-12T07:37:47;16.00;99.90
57088;DHT22;42965;52.846;6.614;2022-09-12T07:40:13;16.00;99.90
57088;DHT22;42965;52.846;6.614;2022-09-12T07:42:39;16.10;99.90
57088;DHT22;42965;52.846;6.614;2022-09-12T07:45:06;16.30;99.90
57088;DHT22;42965;52.846;6.614;2022-09-12T07:47:32;16.40;99.90
57088;DHT22;42965;52.846;6.614;2022-09-12T07:49:58;16.60;99.90
57088;DHT22;42965;52.846;6.614;2022-09-12T07:52:24;16.90;99.90
57088;DHT22;42965;52.846;6.614;2022-09-12T07:54:50;17.20;99.90
57088;DHT22;42965;52.846;6.614;2022-09-12T07:57:17;17.40;99.90
57088;DHT22;42965;52.846;6.614;2022-09-12T07:59:43;17.50;99.90
57088;DHT22;42965;52.846;6.614;2022-09-12T08:02:12;17.50;99.90
57088;DHT22;42965;52.846;6.614;2022-09-12T08:04:39;17.40;99.90
57088;DHT22;42965;52.846;6.614;2022-09-12T08:07:07;17.30;99.90
57088;DHT22;42965;52.846;6.614;2022-09-12T08:09:34;17.30;99.90
57088;DHT22;42965;52.846;6.614;2022-09-12T08:12:01;17.30;99.90
57088;DHT22;42965;52.846;6.614;2022-09-12T08:14:27;17.20;99.90
57088;DHT22;42965;52.846;6.614;2022-09-12T08:16:54;17.20;99.90
57088;DHT22;42965;52.846;6.614;2022-09-12T08:19:20;17.20;99.90
57088;DHT22;42965;52.846;6.614;2022-09-12T08:21:47;17.20;99.90
57088;DHT22;42965;52.846;6.614;2022-09-12T08:24:13;17.20;99.90
57088;DHT22;42965;52.846;6.614;2022-09-12T08:26:40;17.30;99.90
57088;DHT22;42965;52.846;6.614;2022-09-12T08:29:06;17.40;99.90
57088;DHT22;42965;52.846;6.614;2022-09-12T08:31:32;17.50;99.90
57088;DHT22;42965;52.846;6.614;2022-09-12T08:34:03;17.60;99.90
57088;DHT22;42965;52.846;6.614;2022-09-12T08:36:30;17.80;99.90
57088;DHT22;42965;52.846;6.614;2022-09-12T08:39:06;17.90;99.90
57088;DHT22;42965;52.846;6.614;2022-09-12T08:41:39;18.00;99.90
57088;DHT22;42965;52.846;6.614;2022-09-12T08:52:06;18.80;99.90
57088;DHT22;42965;52.846;6.614;2022-09-12T08:54:37;19.00;99.90
57088;DHT22;42965;52.846;6.614;2022-09-12T08:57:05;19.40;99.90
57088;DHT22;42965;52.846;6.614;2022-09-12T08:59:38;20.00;99.90
57088;DHT22;42965;52.846;6.614;2022-09-12T09:05:18;20.80;99.90
57088;DHT22;42965;52.846;6.614;2022-09-12T09:08:22;21.40;99.90
57088;DHT22;42965;52.846;6.614;2022-09-12T09:11:02;21.80;99.90
57088;DHT22;42965;52.846;6.614;2022-09-12T09:16:32;22.00;99.90
57088;DHT22;42965;52.846;6.614;2022-09-12T09:19:03;22.00;99.90
57088;DHT22;42965;52.846;6.614;2022-09-12T09:21:40;21.80;99.90
57088;DHT22;42965;52.846;6.614;2022-09-12T09:24:12;21.80;99.90
57088;DHT22;42965;52.846;6.614;2022-09-12T09:26:44;21.50;99.90
57088;DHT22;42965;52.846;6.614;2022-09-12T09:29:18;21.50;99.90
57088;DHT22;42965;52.846;6.614;2022-09-12T09:31:51;21.50;99.90
57088;DHT22;42965;52.846;6.614;2022-09-12T09:34:24;22.00;99.90
57088;DHT22;42965;52.846;6.614;2022-09-12T09:39:32;23.00;99.90
57088;DHT22;42965;52.846;6.614;2022-09-12T09:42:25;23.40;99.90
57088;DHT22;42965;52.846;6.614;2022-09-12T09:44:55;23.90;99.90
57088;DHT22;42965;52.846;6.614;2022-09-12T09:47:22;24.00;99.90
57088;DHT22;42965;52.846;6.614;2022-09-12T09:49:48;24.30;99.90
57088;DHT22;42965;52.846;6.614;2022-09-12T09:52:16;24.70;99.90
57088;DHT22;42965;52.846;6.614;2022-09-12T09:54:57;25.10;99.90
57088;DHT22;42965;52.846;6.614;2022-09-12T10:00:22;25.70;99.90
57088;DHT22;42965;52.846;6.614;2022-09-12T10:03:02;26.30;99.90
57088;DHT22;42965;52.846;6.614;2022-09-12T10:05:31;26.60;99.90
57088;DHT22;42965;52.846;6.614;2022-09-12T10:07:58;26.80;99.90
57088;DHT22;42965;52.846;6.614;2022-09-12T10:10:24;26.20;99.90
57088;DHT22;42965;52.846;6.614;2022-09-12T10:13:06;26.40;99.90
57088;DHT22;42965;52.846;6.614;2022-09-12T10:15:34;26.30;98.40
57088;DHT22;42965;52.846;6.614;2022-09-12T10:18:00;26.20;99.90
57088;DHT22;42965;52.846;6.614;2022-09-12T10:20:40;26.20;99.90
57088;DHT22;42965;52.846;6.614;2022-09-12T10:23:35;26.30;99.90
57088;DHT22;42965;52.846;6.614;2022-09-12T10:26:07;27.30;99.50
57088;DHT22;42965;52.846;6.614;2022-09-12T10:28:40;28.20;97.70
57088;DHT22;42965;52.846;6.614;2022-09-12T10:31:08;28.00;93.00
57088;DHT22;42965;52.846;6.614;2022-09-12T10:33:45;28.00;95.00
57088;DHT22;42965;52.846;6.614;2022-09-12T10:36:18;28.70;92.80
57088;DHT22;42965;52.846;6.614;2022-09-12T10:39:03;28.70;92.20
57088;DHT22;42965;52.846;6.614;2022-09-12T10:41:38;28.90;92.50
57088;DHT22;42965;52.846;6.614;2022-09-12T10:44:15;29.00;90.30
57088;DHT22;42965;52.846;6.614;2022-09-12T10:46:42;29.30;92.00
57088;DHT22;42965;52.846;6.614;2022-09-12T10:51:48;29.20;84.40
57088;DHT22;42965;52.846;6.614;2022-09-12T10:54:17;29.00;87.20
57088;DHT22;42965;52.846;6.614;2022-09-12T11:02:33;28.80;85.50
57088;DHT22;42965;52.846;6.614;2022-09-12T11:07:47;28.10;85.70
57088;DHT22;42965;52.846;6.614;2022-09-12T11:10:36;28.20;86.80
57088;DHT22;42965;52.846;6.614;2022-09-12T11:13:38;28.80;83.30
57088;DHT22;42965;52.846;6.614;2022-09-12T11:33:27;29.70;70.00
57088;DHT22;42965;52.846;6.614;2022-09-12T11:35:50;29.80;66.80
57088;DHT22;42965;52.846;6.614;2022-09-12T11:41:07;30.60;64.60
57088;DHT22;42965;52.846;6.614;2022-09-12T11:51:56;28.30;76.10
57088;DHT22;42965;52.846;6.614;2022-09-12T11:54:45;28.30;77.30
57088;DHT22;42965;52.846;6.614;2022-09-12T11:57:52;27.90;83.10
57088;DHT22;42965;52.846;6.614;2022-09-12T12:05:54;29.90;67.00
57088;DHT22;42965;52.846;6.614;2022-09-12T12:08:23;30.10;63.70
57088;DHT22;42965;52.846;6.614;2022-09-12T12:10:56;30.30;64.70
57088;DHT22;42965;52.846;6.614;2022-09-12T12:13:31;30.50;62.20
57088;DHT22;42965;52.846;6.614;2022-09-12T12:16:07;30.00;63.30
57088;DHT22;42965;52.846;6.614;2022-09-12T12:18:38;30.00;63.70
57088;DHT22;42965;52.846;6.614;2022-09-12T12:29:12;30.40;59.20
57088;DHT22;42965;52.846;6.614;2022-09-12T12:34:27;30.80;57.80
57088;DHT22;42965;52.846;6.614;2022-09-12T12:36:54;30.70;58.50
57088;DHT22;42965;52.846;6.614;2022-09-12T12:41:59;30.30;57.70
57088;DHT22;42965;52.846;6.614;2022-09-12T12:47:20;30.50;58.90
57088;DHT22;42965;52.846;6.614;2022-09-12T12:50:39;30.30;59.60
57088;DHT22;42965;52.846;6.614;2022-09-12T12:52:56;30.30;56.70
57088;DHT22;42965;52.846;6.614;2022-09-12T13:03:35;31.00;52.80
57088;DHT22;42965;52.846;6.614;2022-09-12T13:06:04;30.70;52.40
57088;DHT22;42965;52.846;6.614;2022-09-12T13:08:32;30.90;51.40
57088;DHT22;42965;52.846;6.614;2022-09-12T13:11:15;30.60;53.00
57088;DHT22;42965;52.846;6.614;2022-09-12T13:14:03;30.60;52.40
57088;DHT22;42965;52.846;6.614;2022-09-12T13:16:38;30.70;54.00
57088;DHT22;42965;52.846;6.614;2022-09-12T13:19:23;30.70;53.50
57088;DHT22;42965;52.846;6.614;2022-09-12T13:21:55;30.40;53.80
57088;DHT22;42965;52.846;6.614;2022-09-12T13:24:22;30.10;53.20
57088;DHT22;42965;52.846;6.614;2022-09-12T13:26:49;30.20;54.50
57088;DHT22;42965;52.846;6.614;2022-09-12T13:29:23;30.30;53.90
57088;DHT22;42965;52.846;6.614;2022-09-12T13:31:58;29.80;52.00
57088;DHT22;42965;52.846;6.614;2022-09-12T13:34:28;29.80;53.10
57088;DHT22;42965;52.846;6.614;2022-09-12T13:42:37;29.80;53.70
57088;DHT22;42965;52.846;6.614;2022-09-12T13:45:22;29.60;52.70
57088;DHT22;42965;52.846;6.614;2022-09-12T13:47:56;30.30;53.50
57088;DHT22;42965;52.846;6.614;2022-09-12T13:50:35;30.00;54.30
57088;DHT22;42965;52.846;6.614;2022-09-12T13:53:30;29.40;53.10
57088;DHT22;42965;52.846;6.614;2022-09-12T13:55:58;30.00;54.80
57088;DHT22;42965;52.846;6.614;2022-09-12T13:58:30;29.70;53.40
57088;DHT22;42965;52.846;6.614;2022-09-12T14:03:53;29.30;54.70
57088;DHT22;42965;52.846;6.614;2022-09-12T14:06:49;29.20;55.20
57088;DHT22;42965;52.846;6.614;2022-09-12T14:09:22;29.20;56.90
57088;DHT22;42965;52.846;6.614;2022-09-12T14:11:49;29.10;57.70
57088;DHT22;42965;52.846;6.614;2022-09-12T14:14:30;29.10;56.80
57088;DHT22;42965;52.846;6.614;2022-09-12T14:16:58;29.20;57.70
57088;DHT22;42965;52.846;6.614;2022-09-12T14:19:27;29.20;58.60
57088;DHT22;42965;52.846;6.614;2022-09-12T14:21:56;29.10;59.00
57088;DHT22;42965;52.846;6.614;2022-09-12T14:24:22;29.40;57.70
57088;DHT22;42965;52.846;6.614;2022-09-12T14:26:53;29.70;56.20
57088;DHT22;42965;52.846;6.614;2022-09-12T14:29:20;30.10;55.60
57088;DHT22;42965;52.846;6.614;2022-09-12T14:31:59;30.00;54.40
57088;DHT22;42965;52.846;6.614;2022-09-12T14:34:27;30.30;54.00
57088;DHT22;42965;52.846;6.614;2022-09-12T14:36:54;30.20;53.90
57088;DHT22;42965;52.846;6.614;2022-09-12T14:42:16;30.40;53.30
57088;DHT22;42965;52.846;6.614;2022-09-12T14:44:54;29.90;54.20
57088;DHT22;42965;52.846;6.614;2022-09-12T14:47:23;29.40;54.10
57088;DHT22;42965;52.846;6.614;2022-09-12T14:49:50;29.00;54.90
57088;DHT22;42965;52.846;6.614;2022-09-12T14:55:28;29.20;53.80
57088;DHT22;42965;52.846;6.614;2022-09-12T15:02:36;27.60;57.90
57088;DHT22;42965;52.846;6.614;2022-09-12T15:07:33;27.00;59.50
57088;DHT22;42965;52.846;6.614;2022-09-12T15:12:32;26.70;63.40
57088;DHT22;42965;52.846;6.614;2022-09-12T15:15:11;26.80;65.40
57088;DHT22;42965;52.846;6.614;2022-09-12T15:17:37;26.70;67.90
57088;DHT22;42965;52.846;6.614;2022-09-12T15:20:04;26.70;67.60
57088;DHT22;42965;52.846;6.614;2022-09-12T15:22:31;26.30;68.90
57088;DHT22;42965;52.846;6.614;2022-09-12T15:24:58;26.10;72.10
57088;DHT22;42965;52.846;6.614;2022-09-12T15:27:24;26.10;75.70
57088;DHT22;42965;52.846;6.614;2022-09-12T15:29:53;26.00;77.20
57088;DHT22;42965;52.846;6.614;2022-09-12T15:32:24;25.90;76.80
57088;DHT22;42965;52.846;6.614;2022-09-12T15:34:51;26.00;78.80
57088;DHT22;42965;52.846;6.614;2022-09-12T15:37:19;25.90;82.00
57088;DHT22;42965;52.846;6.614;2022-09-12T15:39:45;25.80;83.00
57088;DHT22;42965;52.846;6.614;2022-09-12T15:42:13;25.70;83.90
57088;DHT22;42965;52.846;6.614;2022-09-12T15:44:39;25.50;85.80
57088;DHT22;42965;52.846;6.614;2022-09-12T15:47:07;25.50;90.50
57088;DHT22;42965;52.846;6.614;2022-09-12T15:49:35;25.40;92.00
57088;DHT22;42965;52.846;6.614;2022-09-12T15:52:02;25.50;93.00
57088;DHT22;42965;52.846;6.614;2022-09-12T15:54:28;25.40;92.00
57088;DHT22;42965;52.846;6.614;2022-09-12T15:56:54;25.30;92.50
57088;DHT22;42965;52.846;6.614;2022-09-12T15:59:20;25.30;93.40
57088;DHT22;42965;52.846;6.614;2022-09-12T16:01:46;25.20;93.00
57088;DHT22;42965;52.846;6.614;2022-09-12T16:04:21;25.10;93.50
57088;DHT22;42965;52.846;6.614;2022-09-12T16:06:49;24.90;93.50
57088;DHT22;42965;52.846;6.614;2022-09-12T16:09:15;24.70;93.70
57088;DHT22;42965;52.846;6.614;2022-09-12T16:11:41;24.40;95.10
57088;DHT22;42965;52.846;6.614;2022-09-12T16:14:11;24.20;97.00
57088;DHT22;42965;52.846;6.614;2022-09-12T16:16:38;24.10;98.70
57088;DHT22;42965;52.846;6.614;2022-09-12T16:19:04;24.10;98.40
57088;DHT22;42965;52.846;6.614;2022-09-12T16:21:31;24.00;99.30
57088;DHT22;42965;52.846;6.614;2022-09-12T16:23:57;24.10;99.90
57088;DHT22;42965;52.846;6.614;2022-09-12T16:26:23;24.00;99.90
57088;DHT22;42965;52.846;6.614;2022-09-12T16:28:57;24.00;99.90
57088;DHT22;42965;52.846;6.614;2022-09-12T16:31:24;24.00;99.90
57088;DHT22;42965;52.846;6.614;2022-09-12T16:33:52;23.90;99.90
57088;DHT22;42965;52.846;6.614;2022-09-12T16:36:19;23.90;99.90
57088;DHT22;42965;52.846;6.614;2022-09-12T16:38:53;23.90;99.90
57088;DHT22;42965;52.846;6.614;2022-09-12T16:41:21;23.90;99.90
57088;DHT22;42965;52.846;6.614;2022-09-12T16:43:47;23.90;99.90
57088;DHT22;42965;52.846;6.614;2022-09-12T16:46:16;23.90;99.90
57088;DHT22;42965;52.846;6.614;2022-09-12T16:48:45;23.80;99.90
57088;DHT22;42965;52.846;6.614;2022-09-12T16:51:14;23.70;99.90
57088;DHT22;42965;52.846;6.614;2022-09-12T16:53:41;23.70;99.90
57088;DHT22;42965;52.846;6.614;2022-09-12T16:56:08;23.60;99.90
57088;DHT22;42965;52.846;6.614;2022-09-12T16:58:36;23.50;99.90
57088;DHT22;42965;52.846;6.614;2022-09-12T17:01:14;23.40;99.90
57088;DHT22;42965;52.846;6.614;2022-09-12T17:03:41;23.30;99.90
57088;DHT22;42965;52.846;6.614;2022-09-12T17:06:13;23.20;99.90
57088;DHT22;42965;52.846;6.614;2022-09-12T17:08:42;23.20;99.90
57088;DHT22;42965;52.846;6.614;2022-09-12T17:11:15;23.00;99.90
57088;DHT22;42965;52.846;6.614;2022-09-12T17:13:46;22.90;99.90
57088;DHT22;42965;52.846;6.614;2022-09-12T17:16:13;22.70;99.90
57088;DHT22;42965;52.846;6.614;2022-09-12T17:18:39;22.60;99.90
57088;DHT22;42965;52.846;6.614;2022-09-12T17:21:06;22.40;99.90
57088;DHT22;42965;52.846;6.614;2022-09-12T17:23:33;22.30;99.90
57088;DHT22;42965;52.846;6.614;2022-09-12T17:25:59;22.10;99.90
57088;DHT22;42965;52.846;6.614;2022-09-12T17:28:25;22.00;99.90
57088;DHT22;42965;52.846;6.614;2022-09-12T17:31:00;21.90;99.90
57088;DHT22;42965;52.846;6.614;2022-09-12T17:33:27;21.80;99.90
57088;DHT22;42965;52.846;6.614;2022-09-12T17:35:53;21.60;99.90
57088;DHT22;42965;52.846;6.614;2022-09-12T17:38:20;21.60;99.90
57088;DHT22;42965;52.846;6.614;2022-09-12T17:40:46;21.50;99.90
57088;DHT22;42965;52.846;6.614;2022-09-12T17:43:12;21.50;99.90
57088;DHT22;42965;52.846;6.614;2022-09-12T17:45:39;21.40;99.90
57088;DHT22;42965;52.846;6.614;2022-09-12T17:48:06;21.30;99.90
57088;DHT22;42965;52.846;6.614;2022-09-12T17:50:37;21.40;99.90
57088;DHT22;42965;52.846;6.614;2022-09-12T17:53:03;21.20;99.90
57088;DHT22;42965;52.846;6.614;2022-09-12T17:55:36;21.10;99.90
57088;DHT22;42965;52.846;6.614;2022-09-12T17:58:04;21.00;99.90
57088;DHT22;42965;52.846;6.614;2022-09-12T18:00:30;20.90;99.90
57088;DHT22;42965;52.846;6.614;2022-09-12T18:03:18;20.80;99.90
57088;DHT22;42965;52.846;6.614;2022-09-12T18:05:46;20.70;99.90
57088;DHT22;42965;52.846;6.614;2022-09-12T18:08:13;20.50;99.90
57088;DHT22;42965;52.846;6.614;2022-09-12T18:10:40;20.50;99.90
57088;DHT22;42965;52.846;6.614;2022-09-12T18:13:06;20.40;99.90
57088;DHT22;42965;52.846;6.614;2022-09-12T18:15:33;20.40;99.90
57088;DHT22;42965;52.846;6.614;2022-09-12T18:18:00;20.30;99.90
57088;DHT22;42965;52.846;6.614;2022-09-12T18:20:26;20.20;99.90
57088;DHT22;42965;52.846;6.614;2022-09-12T18:22:52;20.10;99.90
57088;DHT22;42965;52.846;6.614;2022-09-12T18:25:19;20.00;99.90
57088;DHT22;42965;52.846;6.614;2022-09-12T18:27:45;20.00;99.90
57088;DHT22;42965;52.846;6.614;2022-09-12T18:30:11;19.90;99.90
57088;DHT22;42965;52.846;6.614;2022-09-12T18:32:39;19.90;99.90